createdAt,value
2018-01-02T00:00:29.397Z,5.55
2018-01-02T00:01:50.371Z,5.52
2018-01-02T00:02:29.339Z,5.48
2018-01-02T00:03:29.309Z,5.50
2018-01-02T00:04:29.284Z,5.52
2018-01-02T00:05:29.251Z,5.43
2018-01-02T00:06:29.215Z,5.44
2018-01-02T00:07:50.184Z,5.44
2018-01-02T00:08:29.156Z,5.52
2018-01-02T00:09:29.288Z,5.39
2018-01-02T00:10:29.095Z,5.50
2018-01-02T00:11:29.060Z,5.47
2018-01-02T00:12:29.034Z,5.55
2018-01-02T00:13:50.003Z,5.51
2018-01-02T00:14:28.973Z,5.47
2018-01-02T00:15:28.946Z,5.48
2018-01-02T00:16:28.936Z,5.55
2018-01-02T00:17:28.878Z,5.52
2018-01-02T00:18:28.852Z,5.50
2018-01-02T00:19:49.812Z,5.44
2018-01-02T00:20:28.785Z,5.59
2018-01-02T00:21:28.758Z,5.58
2018-01-02T00:22:28.727Z,5.52
2018-01-02T00:23:28.697Z,5.50
2018-01-02T00:24:28.664Z,5.54
2018-01-02T00:25:49.645Z,5.50
2018-01-02T00:26:28.609Z,5.50
2018-01-02T00:27:28.577Z,5.51
2018-01-02T00:28:28.545Z,5.55
2018-01-02T00:29:28.514Z,5.51
2018-01-02T00:30:28.485Z,5.51
2018-01-02T00:31:49.459Z,5.55
2018-01-02T00:32:28.425Z,5.55
2018-01-02T00:33:28.397Z,5.57
2018-01-02T00:34:28.359Z,5.52
2018-01-02T00:35:28.329Z,5.47
2018-01-02T00:36:28.297Z,5.47
2018-01-02T00:37:49.271Z,5.48
2018-01-02T00:38:28.239Z,5.44
2018-01-02T00:39:28.211Z,5.48
2018-01-02T00:40:28.176Z,5.51
2018-01-02T00:41:28.152Z,5.57
2018-01-02T00:42:28.120Z,5.48
2018-01-02T00:43:49.095Z,5.48
2018-01-02T00:44:28.061Z,5.48
2018-01-02T00:45:28.030Z,5.48
2018-01-02T00:46:27.999Z,5.48
2018-01-02T00:47:27.968Z,5.52
2018-01-02T00:48:27.950Z,5.51
2018-01-02T00:49:48.906Z,5.50
2018-01-02T00:50:27.875Z,5.52
2018-01-02T00:51:27.842Z,5.59
2018-01-02T00:52:27.817Z,5.51
2018-01-02T00:53:27.784Z,5.58
2018-01-02T00:54:27.751Z,5.59
2018-01-02T00:55:48.727Z,5.47
2018-01-02T00:56:27.691Z,5.52
2018-01-02T00:57:27.664Z,5.55
2018-01-02T00:58:27.634Z,5.57
2018-01-02T00:59:27.607Z,5.59
2018-01-02T01:00:27.578Z,5.58
2018-01-02T01:01:48.541Z,5.51
2018-01-02T01:02:27.516Z,5.52
2018-01-02T01:03:27.484Z,5.62
2018-01-02T01:04:27.456Z,5.58
2018-01-02T01:05:27.416Z,5.59
2018-01-02T01:06:27.388Z,5.69
2018-01-02T01:07:48.354Z,5.58
2018-01-02T01:08:27.331Z,5.62
2018-01-02T01:09:27.295Z,5.66
2018-01-02T01:10:27.265Z,5.67
2018-01-02T01:11:27.235Z,5.67
2018-01-02T01:12:27.207Z,5.72
2018-01-02T01:13:48.180Z,5.57
2018-01-02T01:14:27.156Z,5.69
2018-01-02T01:15:27.119Z,5.65
2018-01-02T01:16:27.087Z,5.67
2018-01-02T01:17:27.051Z,5.70
2018-01-02T01:18:27.022Z,5.62
2018-01-02T01:19:47.990Z,5.70
2018-01-02T01:20:26.969Z,5.66
2018-01-02T01:21:26.936Z,5.59
2018-01-02T01:22:26.907Z,5.61
2018-01-02T01:23:26.875Z,5.62
2018-01-02T01:24:26.847Z,5.70
2018-01-02T01:25:47.815Z,5.66
2018-01-02T01:26:26.795Z,5.69
2018-01-02T01:27:26.756Z,5.70
2018-01-02T01:28:26.728Z,5.73
2018-01-02T01:29:26.691Z,5.66
2018-01-02T01:30:26.660Z,5.59
2018-01-02T01:31:47.630Z,5.66
2018-01-02T01:32:26.598Z,5.69
2018-01-02T01:33:26.578Z,5.67
2018-01-02T01:34:26.539Z,5.66
2018-01-02T01:35:26.508Z,5.70
2018-01-02T01:36:26.482Z,5.58
2018-01-02T01:37:47.449Z,5.66
2018-01-02T01:38:26.424Z,5.62
2018-01-02T01:39:26.392Z,5.65
2018-01-02T01:40:26.361Z,5.76
2018-01-02T01:41:26.331Z,5.75
2018-01-02T01:42:26.301Z,5.79
2018-01-02T01:43:47.270Z,5.72
2018-01-02T01:44:26.240Z,5.67
2018-01-02T01:45:26.212Z,5.75
2018-01-02T01:46:26.182Z,5.67
2018-01-02T01:47:26.149Z,5.76
2018-01-02T01:48:26.123Z,5.70
2018-01-02T01:49:47.086Z,5.77
2018-01-02T01:50:26.058Z,5.75
2018-01-02T01:51:26.047Z,5.67
2018-01-02T01:52:25.993Z,5.77
2018-01-02T01:53:25.993Z,5.72
2018-01-02T01:54:25.941Z,5.69
2018-01-02T01:55:46.906Z,5.75
2018-01-02T01:56:25.877Z,5.75
2018-01-02T01:57:25.856Z,5.73
2018-01-02T01:58:25.818Z,5.75
2018-01-02T01:59:25.788Z,5.66
2018-01-02T02:00:25.764Z,5.75
2018-01-02T02:01:46.723Z,5.73
2018-01-02T02:02:25.694Z,5.80
2018-01-02T02:03:25.673Z,5.76
2018-01-02T02:04:25.634Z,5.75
2018-01-02T02:05:25.602Z,5.70
2018-01-02T02:06:25.573Z,5.70
2018-01-02T02:07:46.542Z,5.75
2018-01-02T02:08:25.515Z,5.70
2018-01-02T02:09:25.638Z,5.72
2018-01-02T02:10:25.456Z,5.67
2018-01-02T02:11:25.430Z,5.77
2018-01-02T02:12:25.397Z,5.73
2018-01-02T02:13:46.366Z,5.70
2018-01-02T02:14:25.334Z,5.73
2018-01-02T02:15:25.315Z,5.72
2018-01-02T02:16:25.274Z,5.73
2018-01-02T02:17:25.239Z,5.70
2018-01-02T02:18:25.211Z,5.76
2018-01-02T02:19:46.182Z,5.73
2018-01-02T02:20:25.151Z,5.75
2018-01-02T02:21:25.122Z,5.73
2018-01-02T02:22:25.089Z,5.73
2018-01-02T02:23:25.060Z,5.66
2018-01-02T02:24:25.036Z,5.72
2018-01-02T02:25:46.001Z,5.67
2018-01-02T02:26:24.976Z,5.70
2018-01-02T02:27:24.955Z,5.73
2018-01-02T02:28:24.916Z,5.72
2018-01-02T02:29:24.888Z,5.75
2018-01-02T02:30:24.855Z,5.75
2018-01-02T02:31:45.821Z,5.72
2018-01-02T02:32:24.795Z,5.72
2018-01-02T02:33:24.761Z,5.69
2018-01-02T02:34:24.742Z,5.73
2018-01-02T02:35:24.701Z,5.69
2018-01-02T02:36:24.668Z,5.76
2018-01-02T02:37:45.639Z,5.80
2018-01-02T02:38:24.609Z,5.76
2018-01-02T02:39:24.578Z,5.76
2018-01-02T02:40:24.558Z,5.79
2018-01-02T02:41:24.536Z,5.80
2018-01-02T02:42:24.495Z,5.80
2018-01-02T02:43:45.460Z,5.77
2018-01-02T02:44:24.644Z,5.80
2018-01-02T02:45:24.405Z,5.79
2018-01-02T02:46:24.376Z,5.80
2018-01-02T02:47:24.559Z,5.67
2018-01-02T02:48:24.311Z,5.70
2018-01-02T02:49:45.275Z,5.72
2018-01-02T02:50:24.255Z,5.80
2018-01-02T02:51:24.226Z,5.70
2018-01-02T02:52:24.187Z,5.70
2018-01-02T02:53:24.157Z,5.76
2018-01-02T02:54:24.129Z,5.77
2018-01-02T02:55:45.100Z,5.85
2018-01-02T02:56:24.070Z,5.73
2018-01-02T02:57:24.042Z,5.75
2018-01-02T02:58:24.023Z,5.75
2018-01-02T02:59:23.980Z,5.79
2018-01-02T03:00:23.948Z,5.67
2018-01-02T03:01:45.140Z,5.76
2018-01-02T03:02:23.890Z,5.76
2018-01-02T03:03:23.866Z,5.76
2018-01-02T03:04:24.071Z,5.82
2018-01-02T03:05:23.798Z,5.80
2018-01-02T03:06:23.766Z,5.77
2018-01-02T03:07:44.734Z,5.80
2018-01-02T03:08:23.706Z,5.85
2018-01-02T03:09:23.683Z,5.75
2018-01-02T03:10:23.656Z,5.88
2018-01-02T03:11:23.617Z,5.77
2018-01-02T03:12:23.584Z,5.82
2018-01-02T03:13:44.557Z,5.77
2018-01-02T03:14:23.528Z,5.87
2018-01-02T03:15:23.510Z,5.70
2018-01-02T03:16:23.468Z,5.84
2018-01-02T03:17:23.442Z,5.90
2018-01-02T03:18:23.412Z,5.87
2018-01-02T03:19:44.377Z,5.82
2018-01-02T03:20:23.353Z,5.87
2018-01-02T03:21:23.322Z,5.88
2018-01-02T03:22:23.287Z,5.85
2018-01-02T03:23:23.256Z,5.85
2018-01-02T03:24:23.223Z,5.88
2018-01-02T03:25:44.200Z,5.76
2018-01-02T03:26:23.172Z,5.80
2018-01-02T03:27:23.146Z,5.80
2018-01-02T03:28:23.108Z,5.80
2018-01-02T03:29:23.080Z,5.79
2018-01-02T03:30:23.054Z,5.84
2018-01-02T03:31:44.016Z,5.87
2018-01-02T03:32:22.994Z,5.88
2018-01-02T03:33:22.966Z,5.94
2018-01-02T03:34:22.927Z,5.93
2018-01-02T03:35:22.895Z,5.88
2018-01-02T03:36:22.866Z,5.85
2018-01-02T03:37:43.839Z,5.91
2018-01-02T03:38:22.810Z,5.91
2018-01-02T03:39:22.786Z,5.95
2018-01-02T03:40:22.749Z,5.94
2018-01-02T03:41:22.718Z,5.90
2018-01-02T03:42:22.688Z,5.88
2018-01-02T03:43:43.658Z,5.88
2018-01-02T03:44:22.912Z,5.93
2018-01-02T03:45:22.610Z,5.84
2018-01-02T03:46:22.566Z,5.88
2018-01-02T03:47:22.535Z,5.82
2018-01-02T03:48:22.505Z,5.84
2018-01-02T03:49:43.474Z,5.87
2018-01-02T03:50:22.446Z,5.84
2018-01-02T03:51:22.428Z,5.84
2018-01-02T03:52:22.386Z,5.94
2018-01-02T03:53:22.360Z,5.84
2018-01-02T03:54:22.329Z,5.90
2018-01-02T03:55:43.297Z,5.84
2018-01-02T03:56:22.270Z,5.80
2018-01-02T03:57:22.251Z,5.84
2018-01-02T03:58:22.214Z,5.87
2018-01-02T03:59:22.179Z,5.82
2018-01-02T04:00:22.149Z,5.82
2018-01-02T04:01:43.115Z,5.88
2018-01-02T04:02:22.086Z,5.87
2018-01-02T04:03:22.064Z,5.82
2018-01-02T04:04:22.024Z,5.82
2018-01-02T04:05:22.000Z,5.82
2018-01-02T04:06:21.973Z,5.85
2018-01-02T04:07:42.939Z,5.85
2018-01-02T04:08:21.904Z,5.85
2018-01-02T04:09:21.885Z,5.84
2018-01-02T04:10:21.848Z,5.80
2018-01-02T04:11:21.821Z,5.80
2018-01-02T04:12:21.796Z,5.85
2018-01-02T04:13:42.758Z,5.88
2018-01-02T04:14:21.730Z,5.77
2018-01-02T04:15:21.709Z,5.79
2018-01-02T04:16:21.668Z,5.80
2018-01-02T04:17:21.636Z,5.85
2018-01-02T04:18:21.608Z,5.84
2018-01-02T04:19:42.573Z,5.88
2018-01-02T04:20:21.548Z,5.88
2018-01-02T04:21:21.522Z,5.84
2018-01-02T04:22:21.638Z,5.85
2018-01-02T04:23:21.456Z,5.85
2018-01-02T04:24:21.429Z,5.85
2018-01-02T04:25:42.398Z,5.84
2018-01-02T04:26:21.368Z,5.77
2018-01-02T04:27:21.344Z,5.77
2018-01-02T04:28:21.318Z,5.69
2018-01-02T04:29:21.274Z,5.80
2018-01-02T04:30:21.301Z,5.79
2018-01-02T04:31:42.213Z,5.80
2018-01-02T04:32:21.189Z,5.87
2018-01-02T04:33:21.160Z,5.82
2018-01-02T04:34:21.139Z,5.91
2018-01-02T04:35:21.105Z,5.84
2018-01-02T04:36:21.072Z,5.85
2018-01-02T04:37:42.037Z,5.77
2018-01-02T04:38:21.009Z,5.76
2018-01-02T04:39:20.981Z,5.73
2018-01-02T04:40:20.960Z,5.75
2018-01-02T04:41:20.922Z,5.87
2018-01-02T04:42:20.893Z,5.84
2018-01-02T04:43:41.857Z,5.85
2018-01-02T04:44:20.825Z,5.87
2018-01-02T04:45:20.815Z,5.85
2018-01-02T04:46:20.776Z,5.84
2018-01-02T04:47:20.739Z,5.77
2018-01-02T04:48:20.706Z,5.82
2018-01-02T04:49:41.681Z,5.84
2018-01-02T04:50:20.653Z,5.88
2018-01-02T04:51:20.620Z,5.79
2018-01-02T04:52:20.598Z,5.84
2018-01-02T04:53:20.559Z,5.84
2018-01-02T04:54:20.538Z,5.87
2018-01-02T04:55:41.499Z,5.77
2018-01-02T04:56:20.472Z,5.77
2018-01-02T04:57:20.444Z,5.91
2018-01-02T04:58:20.409Z,5.91
2018-01-02T04:59:20.381Z,5.88
2018-01-02T05:00:20.354Z,5.84
2018-01-02T05:01:41.316Z,5.84
2018-01-02T05:02:20.290Z,5.87
2018-01-02T05:03:20.271Z,5.77
2018-01-02T05:04:20.232Z,5.84
2018-01-02T05:05:20.205Z,5.84
2018-01-02T05:06:20.175Z,5.84
2018-01-02T05:07:41.142Z,5.94
2018-01-02T05:08:20.119Z,5.87
2018-01-02T05:09:20.090Z,5.82
2018-01-02T05:10:20.074Z,5.94
2018-01-02T05:11:20.024Z,5.84
2018-01-02T05:12:19.992Z,5.82
2018-01-02T05:13:40.954Z,5.93
2018-01-02T05:14:19.933Z,5.97
2018-01-02T05:15:19.900Z,5.91
2018-01-02T05:16:19.877Z,5.94
2018-01-02T05:17:19.842Z,5.94
2018-01-02T05:18:19.814Z,5.90
2018-01-02T05:19:40.779Z,6.06
2018-01-02T05:20:19.752Z,5.94
2018-01-02T05:21:19.723Z,6.02
2018-01-02T05:22:19.925Z,6.05
2018-01-02T05:23:19.665Z,6.06
2018-01-02T05:24:19.635Z,6.05
2018-01-02T05:25:40.601Z,6.05
2018-01-02T05:26:19.574Z,6.09
2018-01-02T05:27:19.544Z,6.06
2018-01-02T05:28:19.525Z,6.06
2018-01-02T05:29:19.481Z,5.97
2018-01-02T05:30:19.449Z,6.02
2018-01-02T05:31:40.438Z,6.00
2018-01-02T05:32:19.390Z,6.05
2018-01-02T05:33:19.370Z,6.05
2018-01-02T05:34:19.347Z,5.94
2018-01-02T05:35:19.310Z,6.06
2018-01-02T05:36:19.274Z,5.98
2018-01-02T05:37:40.238Z,6.13
2018-01-02T05:38:19.211Z,6.08
2018-01-02T05:39:19.182Z,6.08
2018-01-02T05:40:19.158Z,6.06
2018-01-02T05:41:19.125Z,6.08
2018-01-02T05:42:19.093Z,6.00
2018-01-02T05:43:40.064Z,5.98
2018-01-02T05:44:19.034Z,6.06
2018-01-02T05:45:19.010Z,6.06
2018-01-02T05:46:18.980Z,6.08
2018-01-02T05:47:18.951Z,6.08
2018-01-02T05:48:19.073Z,5.97
2018-01-02T05:49:39.891Z,6.00
2018-01-02T05:50:18.856Z,6.08
2018-01-02T05:51:18.827Z,5.97
2018-01-02T05:52:18.795Z,6.08
2018-01-02T05:53:18.772Z,6.06
2018-01-02T05:54:18.807Z,6.08
2018-01-02T05:55:39.702Z,6.11
2018-01-02T05:56:18.688Z,6.12
2018-01-02T05:57:18.645Z,6.12
2018-01-02T05:58:18.614Z,6.12
2018-01-02T05:59:18.584Z,6.18
2018-01-02T06:00:18.755Z,6.16
2018-01-02T06:01:39.529Z,6.16
2018-01-02T06:02:18.497Z,6.15
2018-01-02T06:03:18.467Z,6.15
2018-01-02T06:04:18.446Z,6.21
2018-01-02T06:05:18.416Z,6.19
2018-01-02T06:06:18.387Z,6.18
2018-01-02T06:07:39.368Z,6.13
2018-01-02T06:08:18.322Z,6.19
2018-01-02T06:09:18.291Z,6.24
2018-01-02T06:10:18.266Z,6.18
2018-01-02T06:11:18.231Z,6.15
2018-01-02T06:12:18.200Z,6.19
2018-01-02T06:13:39.170Z,6.18
2018-01-02T06:14:18.138Z,6.15
2018-01-02T06:15:18.155Z,6.19
2018-01-02T06:16:18.076Z,6.18
2018-01-02T06:17:18.249Z,6.13
2018-01-02T06:18:18.028Z,6.12
2018-01-02T06:19:38.991Z,6.21
2018-01-02T06:20:17.968Z,6.15
2018-01-02T06:21:17.932Z,6.18
2018-01-02T06:22:17.902Z,6.18
2018-01-02T06:23:17.876Z,6.15
2018-01-02T06:24:17.841Z,6.12
2018-01-02T06:25:38.812Z,6.21
2018-01-02T06:26:17.796Z,6.28
2018-01-02T06:27:17.746Z,6.35
2018-01-02T06:28:17.736Z,6.32
2018-01-02T06:29:17.692Z,6.28
2018-01-02T06:30:17.661Z,6.32
2018-01-02T06:31:38.628Z,6.34
2018-01-02T06:32:17.610Z,6.31
2018-01-02T06:33:17.745Z,6.31
2018-01-02T06:34:17.544Z,6.31
2018-01-02T06:35:17.664Z,6.31
2018-01-02T06:36:17.486Z,6.34
2018-01-02T06:37:38.464Z,6.32
2018-01-02T06:38:17.425Z,6.32
2018-01-02T06:39:17.397Z,6.35
2018-01-02T06:40:17.369Z,6.30
2018-01-02T06:41:17.334Z,6.30
2018-01-02T06:42:17.301Z,6.37
2018-01-02T06:43:38.273Z,6.34
2018-01-02T06:44:17.248Z,6.38
2018-01-02T06:45:17.220Z,6.37
2018-01-02T06:46:17.185Z,6.46
2018-01-02T06:47:17.152Z,6.42
2018-01-02T06:48:17.121Z,6.38
2018-01-02T06:49:38.095Z,6.40
2018-01-02T06:50:17.067Z,6.37
2018-01-02T06:51:17.042Z,6.32
2018-01-02T06:52:17.024Z,6.30
2018-01-02T06:53:16.976Z,6.34
2018-01-02T06:54:16.949Z,6.37
2018-01-02T06:55:37.930Z,6.30
2018-01-02T06:56:17.087Z,6.38
2018-01-02T06:57:16.861Z,6.35
2018-01-02T06:58:16.827Z,6.38
2018-01-02T06:59:16.802Z,6.47
2018-01-02T07:00:16.766Z,6.40
2018-01-02T07:01:37.734Z,6.50
2018-01-02T07:02:16.712Z,6.40
2018-01-02T07:03:16.687Z,6.40
2018-01-02T07:04:16.651Z,6.45
2018-01-02T07:05:16.626Z,6.46
2018-01-02T07:06:16.585Z,6.50
2018-01-02T07:07:37.745Z,6.45
2018-01-02T07:08:16.525Z,6.47
2018-01-02T07:09:16.495Z,6.49
2018-01-02T07:10:16.466Z,6.45
2018-01-02T07:11:16.445Z,6.49
2018-01-02T07:12:16.406Z,6.50
2018-01-02T07:13:37.374Z,6.50
2018-01-02T07:14:16.354Z,6.46
2018-01-02T07:15:16.325Z,6.56
2018-01-02T07:16:16.291Z,6.47
2018-01-02T07:17:16.273Z,6.46
2018-01-02T07:18:16.232Z,6.53
2018-01-02T07:19:37.222Z,6.50
2018-01-02T07:20:16.172Z,6.52
2018-01-02T07:21:16.154Z,6.47
2018-01-02T07:22:16.109Z,6.52
2018-01-02T07:23:16.089Z,6.52
2018-01-02T07:24:16.053Z,6.49
2018-01-02T07:25:37.017Z,6.49
2018-01-02T07:26:15.994Z,6.45
2018-01-02T07:27:15.998Z,6.37
2018-01-02T07:28:15.929Z,6.42
2018-01-02T07:29:15.906Z,6.45
2018-01-02T07:30:15.874Z,6.45
2018-01-02T07:31:36.847Z,6.46
2018-01-02T07:32:15.819Z,6.45
2018-01-02T07:33:15.789Z,6.49
2018-01-02T07:34:15.781Z,6.45
2018-01-02T07:35:15.730Z,6.47
2018-01-02T07:36:15.696Z,6.49
2018-01-02T07:37:36.663Z,6.53
2018-01-02T07:38:15.634Z,6.52
2018-01-02T07:39:15.609Z,6.38
2018-01-02T07:40:15.573Z,6.45
2018-01-02T07:41:15.771Z,6.43
2018-01-02T07:42:15.518Z,6.38
2018-01-02T07:43:36.480Z,6.42
2018-01-02T07:44:15.453Z,6.43
2018-01-02T07:45:15.423Z,6.53
2018-01-02T07:46:15.397Z,6.47
2018-01-02T07:47:15.371Z,6.52
2018-01-02T07:48:15.336Z,6.46
2018-01-02T07:49:36.304Z,6.52
2018-01-02T07:50:15.281Z,6.49
2018-01-02T07:51:15.247Z,6.53
2018-01-02T07:52:15.217Z,6.46
2018-01-02T07:53:15.190Z,6.55
2018-01-02T07:54:15.164Z,6.52
2018-01-02T07:55:36.121Z,6.50
2018-01-02T07:56:15.092Z,6.49
2018-01-02T07:57:15.064Z,6.50
2018-01-02T07:58:15.036Z,6.43
2018-01-02T07:59:15.042Z,6.50
2018-01-02T08:00:14.980Z,6.53
2018-01-02T08:01:35.943Z,6.50
2018-01-02T08:02:15.096Z,6.52
2018-01-02T08:03:14.890Z,6.50
2018-01-02T08:04:14.865Z,6.49
2018-01-02T08:05:14.831Z,6.50
2018-01-02T08:06:14.808Z,6.46
2018-01-02T08:07:35.770Z,6.46
2018-01-02T08:08:14.733Z,6.55
2018-01-02T08:09:14.707Z,6.52
2018-01-02T08:10:14.680Z,6.45
2018-01-02T08:11:14.650Z,6.50
2018-01-02T08:12:14.620Z,6.49
2018-01-02T08:13:35.593Z,6.47
2018-01-02T08:14:14.560Z,6.49
2018-01-02T08:15:14.534Z,6.52
2018-01-02T08:16:14.501Z,6.50
2018-01-02T08:17:14.476Z,6.50
2018-01-02T08:18:14.439Z,6.47
2018-01-02T08:19:35.404Z,6.50
2018-01-02T08:20:14.393Z,6.55
2018-01-02T08:21:14.350Z,6.47
2018-01-02T08:22:14.319Z,6.53
2018-01-02T08:23:14.289Z,6.49
2018-01-02T08:24:14.258Z,6.52
2018-01-02T08:25:35.226Z,6.49
2018-01-02T08:26:14.213Z,6.49
2018-01-02T08:27:14.173Z,6.50
2018-01-02T08:28:14.147Z,6.53
2018-01-02T08:29:14.117Z,6.52
2018-01-02T08:30:14.087Z,6.46
2018-01-02T08:31:35.054Z,6.52
2018-01-02T08:32:14.028Z,6.47
2018-01-02T08:33:14.011Z,6.49
2018-01-02T08:34:13.960Z,6.49
2018-01-02T08:35:13.932Z,6.50
2018-01-02T08:36:13.901Z,6.43
2018-01-02T08:37:34.868Z,6.49
2018-01-02T08:38:13.842Z,6.50
2018-01-02T08:39:13.818Z,6.47
2018-01-02T08:40:13.787Z,6.47
2018-01-02T08:41:13.756Z,6.55
2018-01-02T08:42:13.729Z,6.47
2018-01-02T08:43:34.698Z,6.56
2018-01-02T08:44:13.671Z,6.53
2018-01-02T08:45:13.639Z,6.52
2018-01-02T08:46:13.618Z,6.60
2018-01-02T08:47:13.582Z,6.49
2018-01-02T08:48:13.551Z,6.49
2018-01-02T08:49:34.519Z,6.49
2018-01-02T08:50:13.485Z,6.49
2018-01-02T08:51:13.456Z,6.47
2018-01-02T08:52:13.435Z,6.47
2018-01-02T08:53:13.396Z,6.49
2018-01-02T08:54:13.368Z,6.47
2018-01-02T08:55:34.336Z,6.50
2018-01-02T08:56:13.306Z,6.49
2018-01-02T08:57:22.206Z,6.55
2018-01-02T08:58:13.260Z,6.46
2018-01-02T08:59:13.224Z,6.50
2018-01-02T09:00:13.194Z,6.47
2018-01-02T09:01:34.161Z,6.45
2018-01-02T09:02:13.136Z,6.46
2018-01-02T09:03:13.103Z,6.52
2018-01-02T09:04:13.087Z,6.49
2018-01-02T09:05:13.044Z,6.49
2018-01-02T09:06:13.009Z,6.50
2018-01-02T09:07:33.985Z,6.45
2018-01-02T09:08:12.953Z,6.47
2018-01-02T09:09:12.922Z,6.47
2018-01-02T09:10:12.894Z,6.43
2018-01-02T09:11:12.876Z,6.46
2018-01-02T09:12:12.839Z,6.46
2018-01-02T09:13:33.805Z,6.49
2018-01-02T09:14:12.774Z,6.52
2018-01-02T09:15:12.746Z,6.52
2018-01-02T09:16:12.717Z,6.55
2018-01-02T09:17:12.694Z,6.50
2018-01-02T09:18:12.657Z,6.47
2018-01-02T09:19:33.623Z,6.50
2018-01-02T09:20:12.605Z,6.50
2018-01-02T09:21:12.564Z,6.50
2018-01-02T09:22:12.541Z,6.50
2018-01-02T09:23:12.522Z,6.60
2018-01-02T09:24:12.481Z,6.56
2018-01-02T09:25:33.450Z,6.60
2018-01-02T09:26:12.422Z,6.50
2018-01-02T09:27:12.397Z,6.49
2018-01-02T09:28:12.365Z,6.56
2018-01-02T09:29:12.333Z,6.50
2018-01-02T09:30:12.304Z,6.60
2018-01-02T09:31:33.269Z,6.53
2018-01-02T09:32:12.239Z,6.53
2018-01-02T09:33:12.211Z,6.63
2018-01-02T09:34:12.183Z,6.50
2018-01-02T09:35:12.151Z,6.65
2018-01-02T09:36:12.133Z,6.57
2018-01-02T09:37:33.091Z,6.63
2018-01-02T09:38:12.066Z,6.63
2018-01-02T09:39:12.037Z,6.61
2018-01-02T09:40:12.007Z,6.60
2018-01-02T09:41:11.976Z,6.63
2018-01-02T09:42:11.956Z,6.60
2018-01-02T09:43:32.917Z,6.50
2018-01-02T09:44:11.887Z,6.52
2018-01-02T09:45:11.861Z,6.55
2018-01-02T09:46:11.827Z,6.75
2018-01-02T09:47:11.801Z,6.63
2018-01-02T09:48:11.766Z,6.68
2018-01-02T09:49:32.748Z,6.60
2018-01-02T09:50:11.712Z,6.65
2018-01-02T09:51:11.680Z,6.65
2018-01-02T09:52:11.652Z,6.64
2018-01-02T09:53:11.623Z,6.61
2018-01-02T09:54:11.825Z,6.79
2018-01-02T09:55:32.573Z,6.68
2018-01-02T09:56:11.535Z,6.71
2018-01-02T09:57:11.508Z,6.71
2018-01-02T09:58:11.477Z,6.70
2018-01-02T09:59:11.447Z,6.63
2018-01-02T10:00:11.420Z,6.71
2018-01-02T10:01:32.393Z,6.81
2018-01-02T10:02:11.359Z,6.75
2018-01-02T10:03:11.326Z,6.73
2018-01-02T10:04:11.295Z,6.74
2018-01-02T10:05:11.274Z,6.70
2018-01-02T10:06:11.236Z,6.74
2018-01-02T10:07:32.207Z,6.74
2018-01-02T10:08:11.185Z,6.73
2018-01-02T10:09:11.152Z,6.83
2018-01-02T10:10:11.126Z,6.83
2018-01-02T10:11:11.097Z,6.85
2018-01-02T10:12:11.064Z,6.85
2018-01-02T10:13:32.036Z,6.92
2018-01-02T10:14:11.023Z,6.97
2018-01-02T10:15:11.012Z,6.96
2018-01-02T10:16:10.942Z,7.01
2018-01-02T10:17:10.915Z,7.00
2018-01-02T10:18:10.891Z,6.91
2018-01-02T10:19:31.863Z,6.88
2018-01-02T10:20:10.831Z,6.96
2018-01-02T10:21:10.813Z,7.00
2018-01-02T10:22:10.772Z,7.07
2018-01-02T10:23:10.743Z,6.96
2018-01-02T10:24:10.717Z,7.06
2018-01-02T10:25:31.687Z,7.07
2018-01-02T10:26:10.657Z,7.13
2018-01-02T10:27:10.635Z,7.18
2018-01-02T10:28:10.595Z,7.16
2018-01-02T10:29:10.568Z,7.18
2018-01-02T10:30:10.540Z,7.29
2018-01-02T10:31:31.506Z,7.37
2018-01-02T10:32:10.491Z,7.37
2018-01-02T10:33:10.454Z,7.31
2018-01-02T10:34:10.429Z,7.40
2018-01-02T10:35:10.406Z,7.24
2018-01-02T10:36:10.367Z,7.08
2018-01-02T10:37:31.342Z,7.00
2018-01-02T10:38:10.322Z,7.06
2018-01-02T10:39:10.504Z,6.99
2018-01-02T10:40:10.253Z,6.96
2018-01-02T10:41:10.222Z,6.97
2018-01-02T10:42:10.191Z,7.07
2018-01-02T10:43:31.163Z,7.04
2018-01-02T10:44:10.140Z,6.89
2018-01-02T10:45:10.104Z,6.86
2018-01-02T10:46:10.074Z,6.86
2018-01-02T10:47:10.045Z,6.85
2018-01-02T10:48:10.015Z,6.91
2018-01-02T10:49:30.984Z,6.92
2018-01-02T10:50:09.962Z,6.89
2018-01-02T10:51:09.942Z,6.93
2018-01-02T10:52:09.904Z,6.99
2018-01-02T10:53:09.879Z,7.07
2018-01-02T10:54:09.845Z,6.96
2018-01-02T10:55:30.862Z,7.00
2018-01-02T10:56:09.787Z,7.06
2018-01-02T10:57:09.763Z,6.96
2018-01-02T10:58:09.736Z,7.00
2018-01-02T10:59:09.696Z,7.03
2018-01-02T11:00:09.669Z,7.06
2018-01-02T11:01:30.638Z,7.07
2018-01-02T11:02:09.608Z,7.07
2018-01-02T11:03:09.592Z,7.13
2018-01-02T11:04:09.550Z,7.13
2018-01-02T11:05:09.524Z,7.21
2018-01-02T11:06:09.498Z,7.21
2018-01-02T11:07:30.471Z,7.31
2018-01-02T11:08:09.439Z,7.33
2018-01-02T11:09:09.412Z,7.40
2018-01-02T11:10:09.410Z,7.46
2018-01-02T11:11:09.354Z,7.46
2018-01-02T11:12:09.324Z,7.49
2018-01-02T11:13:30.296Z,7.52
2018-01-02T11:14:09.259Z,7.54
2018-01-02T11:15:09.234Z,7.49
2018-01-02T11:16:09.210Z,7.52
2018-01-02T11:17:09.175Z,7.49
2018-01-02T11:18:09.150Z,7.40
2018-01-02T11:19:30.119Z,7.37
2018-01-02T11:20:09.091Z,7.31
2018-01-02T11:21:09.066Z,7.19
2018-01-02T11:22:09.045Z,7.29
2018-01-02T11:23:09.007Z,7.18
2018-01-02T11:24:08.975Z,7.25
2018-01-02T11:25:29.944Z,7.25
2018-01-02T11:26:08.917Z,7.16
2018-01-02T11:27:08.940Z,7.01
2018-01-02T11:28:08.858Z,7.04
2018-01-02T11:29:08.833Z,7.01
2018-01-02T11:30:15.728Z,7.06
2018-01-02T11:31:29.776Z,7.01
2018-01-02T11:32:08.748Z,7.04
2018-01-02T11:33:08.716Z,6.99
2018-01-02T11:34:08.691Z,7.03
2018-01-02T11:35:08.659Z,7.15
2018-01-02T11:36:08.646Z,7.15
2018-01-02T11:37:29.601Z,7.16
2018-01-02T11:38:41.165Z,7.13
2018-01-02T11:39:08.540Z,7.04
2018-01-02T11:40:08.516Z,6.97
2018-01-02T11:41:08.489Z,6.88
2018-01-02T11:42:29.452Z,7.06
2018-01-02T11:43:08.424Z,7.04
2018-01-02T11:44:08.395Z,7.06
2018-01-02T11:45:08.370Z,7.08
2018-01-02T11:46:08.515Z,7.13
2018-01-02T11:47:08.318Z,7.08
2018-01-02T11:48:29.282Z,7.04
2018-01-02T11:49:08.256Z,6.97
2018-01-02T11:50:08.231Z,7.07
2018-01-02T11:51:08.202Z,6.82
2018-01-02T11:52:08.165Z,6.96
2018-01-02T11:53:08.144Z,6.92
2018-01-02T11:54:29.106Z,6.86
2018-01-02T11:55:08.079Z,6.85
2018-01-02T11:56:08.049Z,7.00
2018-01-02T11:57:08.018Z,7.07
2018-01-02T11:58:07.990Z,7.11
2018-01-02T11:59:07.981Z,7.13
2018-01-02T12:00:28.928Z,7.10
2018-01-02T12:01:07.907Z,7.06
2018-01-02T12:02:07.884Z,7.00
2018-01-02T12:03:07.862Z,6.93
2018-01-02T12:04:07.819Z,6.89
2018-01-02T12:05:07.792Z,7.06
2018-01-02T12:06:28.767Z,7.03
2018-01-02T12:07:07.734Z,6.91
2018-01-02T12:08:07.705Z,6.97
2018-01-02T12:09:07.670Z,6.99
2018-01-02T12:10:07.642Z,7.04
2018-01-02T12:11:07.614Z,7.03
2018-01-02T12:12:28.584Z,7.11
2018-01-02T12:13:07.553Z,7.16
2018-01-02T12:14:07.525Z,7.07
2018-01-02T12:15:07.499Z,7.28
2018-01-02T12:16:07.466Z,7.37
2018-01-02T12:17:07.447Z,7.39
2018-01-02T12:18:28.413Z,7.34
2018-01-02T12:19:07.392Z,7.46
2018-01-02T12:20:07.357Z,7.50
2018-01-02T12:21:07.323Z,7.40
2018-01-02T12:22:07.297Z,7.33
2018-01-02T12:23:07.266Z,7.43
2018-01-02T12:24:28.234Z,7.34
2018-01-02T12:25:07.228Z,7.28
2018-01-02T12:26:07.183Z,7.36
2018-01-02T12:27:07.158Z,7.43
2018-01-02T12:28:07.271Z,7.34
2018-01-02T12:29:07.098Z,7.37
2018-01-02T12:30:28.070Z,7.36
2018-01-02T12:31:07.047Z,7.26
2018-01-02T12:32:07.019Z,7.34
2018-01-02T12:33:06.977Z,7.47
2018-01-02T12:34:06.956Z,7.54
2018-01-02T12:35:06.931Z,7.43
2018-01-02T12:36:27.891Z,7.58
2018-01-02T12:37:06.869Z,7.57
2018-01-02T12:38:06.840Z,7.52
2018-01-02T12:39:06.806Z,7.57
2018-01-02T12:40:06.779Z,7.52
2018-01-02T12:41:06.757Z,7.50
2018-01-02T12:42:27.726Z,7.40
2018-01-02T12:43:06.706Z,7.52
2018-01-02T12:44:06.673Z,7.52
2018-01-02T12:45:06.640Z,7.58
2018-01-02T12:46:06.785Z,7.54
2018-01-02T12:47:06.582Z,7.73
2018-01-02T12:48:27.559Z,7.78
2018-01-02T12:49:06.521Z,7.83
2018-01-02T12:50:06.496Z,7.83
2018-01-02T12:51:06.468Z,7.78
2018-01-02T12:52:06.434Z,7.58
2018-01-02T12:53:06.409Z,7.61
2018-01-02T12:54:27.380Z,7.78
2018-01-02T12:55:06.351Z,7.64
2018-01-02T12:56:06.327Z,7.62
2018-01-02T12:57:06.296Z,7.58
2018-01-02T12:58:06.269Z,7.57
2018-01-02T12:59:06.242Z,7.60
2018-01-02T13:00:27.211Z,7.68
2018-01-02T13:01:06.183Z,7.77
2018-01-02T13:02:06.164Z,7.62
2018-01-02T13:03:06.125Z,7.64
2018-01-02T13:04:06.104Z,7.68
2018-01-02T13:05:06.199Z,7.69
2018-01-02T13:06:27.038Z,7.61
2018-01-02T13:07:06.012Z,7.64
2018-01-02T13:08:05.994Z,7.64
2018-01-02T13:09:05.951Z,7.68
2018-01-02T13:10:05.925Z,7.57
2018-01-02T13:11:05.897Z,7.61
2018-01-02T13:12:26.867Z,7.76
2018-01-02T13:13:26.846Z,7.76
2018-01-02T13:14:05.816Z,7.77
2018-01-02T13:15:05.792Z,7.76
2018-01-02T13:16:05.766Z,7.78
2018-01-02T13:17:26.729Z,7.77
2018-01-02T13:18:05.700Z,7.76